.
WxDataArchive / Data Records for 2012-03-07
2012-03-06 March 2012 2012-03-08

Data Records for Wednesday, 07 March 2012

Time	Temp	Chill	HIndex	Humid	Dewpt	 Wind 	HiWind	WindDir	Rain 	Barom 
-----	----	-----	------	-----	-----	------	------	-------	-----	----- 
00:00	50.2	50.2	50.2	46	30.2	1	4	248	0.00	30.108 
00:05	50.2	50.2	50.2	46	30.2	0	2	248	0.00	30.108 
00:10	50.2	50.2	50.2	46	30.2	0	2	248	0.00	30.108 
00:15	50.4	50.4	50.4	45	29.9	1	4	248	0.00	30.106 
00:20	50.5	50.5	50.5	44	29.4	0	3	248	0.00	30.106 
00:25	50.5	50.5	50.5	43	28.8	0	5	248	0.00	30.106 
00:30	50.5	50.5	50.5	43	28.8	1	3	292	0.00	30.108 
00:35	50.8	50.8	50.8	42	28.5	1	4	202	0.00	30.108 
00:40	51.3	51.3	51.3	40	27.8	1	4	248	0.00	30.108 
00:45	51.6	51.6	51.6	39	27.5	1	4	270	0.00	30.110 
00:50	51.9	51.9	51.9	38	27.1	1	3	292	0.00	30.110 
00:55	52.0	52.0	52.0	37	26.5	1	3	292	0.00	30.110 
01:00	52.2	52.2	52.2	37	26.7	1	4	270	0.00	30.108 
01:05	52.3	52.3	52.3	37	26.8	1	4	270	0.00	30.108 
01:10	52.3	52.3	52.3	36	26.1	1	5	248	0.00	30.108 
01:15	52.5	52.5	52.5	36	26.3	1	5	248	0.00	30.107 
01:20	52.6	52.6	52.6	36	26.4	1	4	248	0.00	30.107 
01:25	52.5	52.5	52.5	36	26.3	1	4	248	0.00	30.107 
01:30	52.5	52.5	52.5	35	25.6	1	5	248	0.00	30.110 
01:35	52.5	52.5	52.5	35	25.6	1	4	248	0.00	30.110 
01:40	52.5	52.5	52.5	35	25.6	1	5	248	0.00	30.110 
01:45	52.5	52.5	52.5	35	25.6	1	6	248	0.00	30.118 
01:50	52.5	52.5	52.5	35	25.6	1	5	270	0.00	30.118 
01:55	52.5	52.5	52.5	34	25.0	2	5	270	0.00	30.118 
02:00	52.5	52.5	52.5	35	25.6	1	5	248	0.00	30.123 
02:05	52.5	52.5	52.5	35	25.6	2	4	248	0.00	30.123 
02:10	52.3	52.3	52.3	35	25.5	2	7	248	0.00	30.123 
02:15	52.2	52.2	52.2	35	25.4	1	5	270	0.00	30.123 
02:20	52.2	52.2	52.2	35	25.4	1	5	248	0.00	30.123 
02:25	52.2	52.2	52.2	35	25.4	1	6	292	0.00	30.123 
02:30	52.0	52.0	52.0	35	25.2	1	5	248	0.00	30.122 
02:35	51.9	51.9	51.9	35	25.1	2	6	270	0.00	30.122 
02:40	51.7	51.7	51.7	36	25.6	1	6	248	0.00	30.122 
02:45	51.6	51.6	51.6	36	25.5	1	5	248	0.00	30.120 
02:50	51.4	51.4	51.4	36	25.4	1	6	270	0.00	30.120 
02:55	51.3	51.3	51.3	36	25.3	2	7	270	0.00	30.120 
03:00	51.1	51.1	51.1	37	25.7	1	4	270	0.00	30.119 
03:05	51.1	51.1	51.1	37	25.7	2	9	270	0.00	30.119 
03:10	51.0	51.0	51.0	37	25.7	2	5	270	0.00	30.119 
03:15	51.0	51.0	51.0	37	25.7	2	6	248	0.00	30.120 
03:20	50.8	50.8	50.8	38	26.1	1	4	292	0.00	30.120 
03:25	50.5	50.5	50.5	38	25.9	1	4	248	0.00	30.120 
03:30	50.4	50.4	50.4	39	26.4	1	4	248	0.00	30.119 
03:35	50.4	50.4	50.4	39	26.4	2	5	248	0.00	30.119 
03:40	50.2	50.2	50.2	39	26.2	1	4	248	0.00	30.119 
03:45	50.1	50.1	50.1	39	26.1	1	4	248	0.00	30.120 
03:50	50.1	50.1	50.1	39	26.1	1	7	248	0.00	30.120 
03:55	49.9	49.9	49.9	39	25.9	1	5	248	0.00	30.120 
04:00	49.8	49.8	49.8	40	26.5	1	4	248	0.00	30.120 
04:05	49.8	49.8	49.8	40	26.5	2	7	248	0.00	30.120 
04:10	49.6	49.6	49.6	41	26.9	1	4	248	0.00	30.120 
04:15	49.6	49.6	49.6	41	26.9	1	5	315	0.00	30.121 
04:20	49.5	49.5	49.5	41	26.8	1	5	248	0.00	30.121 
04:25	49.5	49.5	49.5	42	27.4	1	5	248	0.00	30.121 
04:30	49.4	49.4	49.4	42	27.3	1	4	248	0.00	30.126 
04:35	49.2	49.2	49.2	42	27.1	1	4	248	0.00	30.126 
04:40	49.2	49.2	49.2	43	27.7	1	3	248	0.00	30.126 
04:45	49.2	49.2	49.2	43	27.7	1	3	248	0.00	30.127 
04:50	49.1	49.1	49.1	43	27.6	1	4	248	0.00	30.127 
04:55	49.1	49.1	49.1	43	27.6	1	5	248	0.00	30.127 
05:00	49.1	49.1	49.1	43	27.6	1	4	90	0.00	30.126 
05:05	48.9	48.9	48.9	43	27.4	1	4	270	0.00	30.126 
05:10	48.9	48.9	48.9	44	28.0	1	3	270	0.00	30.126 
05:15	49.1	49.1	49.1	44	28.1	1	5	270	0.00	30.132 
05:20	49.1	49.1	49.1	44	28.1	1	3	270	0.00	30.132 
05:25	48.9	48.9	48.9	44	28.0	1	4	0	0.00	30.132 
05:30	48.9	48.9	48.9	44	28.0	1	5	338	0.00	30.133 
05:35	48.9	48.9	48.9	44	28.0	1	3	270	0.00	30.133 
05:40	48.8	48.8	48.8	45	28.4	1	3	270	0.00	30.133 
05:45	48.9	48.9	48.9	45	28.5	1	2	270	0.00	30.138 
05:50	48.9	48.9	48.9	45	28.5	1	3	270	0.00	30.138 
05:55	48.9	48.9	48.9	45	28.5	1	5	292	0.00	30.138 
06:00	48.9	48.9	48.9	46	29.0	1	4	248	0.00	30.141 
06:05	48.9	48.9	48.9	45	28.5	1	7	248	0.00	30.141 
06:10	48.9	48.9	48.9	45	28.5	1	4	248	0.00	30.141 
06:15	48.9	48.9	48.9	46	29.0	1	7	248	0.00	30.143 
06:20	48.9	48.9	48.9	46	29.0	1	4	248	0.00	30.143 
06:25	48.8	48.8	48.8	46	28.9	1	6	248	0.00	30.143 
06:30	48.8	48.8	48.8	46	28.9	2	7	248	0.00	30.144 
06:35	48.9	48.9	48.9	46	29.0	2	7	270	0.00	30.144 
06:40	48.9	48.9	48.9	46	29.0	1	9	248	0.00	30.144 
06:45	48.8	48.8	48.8	46	28.9	1	4	225	0.00	30.144 
06:50	48.9	48.9	48.9	46	29.0	1	4	248	0.00	30.144 
06:55	48.8	48.8	48.8	46	28.9	1	5	248	0.00	30.144 
07:00	48.8	48.8	48.8	46	28.9	2	7	248	0.00	30.146 
07:05	48.9	48.9	48.9	46	29.0	1	5	248	0.00	30.146 
07:10	48.9	48.9	48.9	46	29.0	1	5	248	0.00	30.146 
07:15	48.8	48.8	48.8	46	28.9	1	5	270	0.00	30.149 
07:20	48.6	48.6	48.6	47	29.3	1	4	90	0.00	30.149 
07:25	48.8	48.8	48.8	47	29.5	2	5	292	0.00	30.149 
07:30	48.9	48.9	48.9	47	29.6	1	6	248	0.00	30.151 
07:35	49.1	49.1	49.1	47	29.7	1	5	270	0.00	30.151 
07:40	49.1	49.1	49.1	46	29.2	1	4	248	0.00	30.151 
07:45	49.4	49.4	49.4	46	29.5	2	5	225	0.00	30.158 
07:50	49.5	49.5	49.5	46	29.6	1	5	248	0.00	30.158 
07:55	49.6	49.6	49.6	46	29.7	1	5	270	0.00	30.158 
08:00	49.8	49.8	49.8	46	29.9	2	4	248	0.00	30.158 
08:05	49.9	49.9	49.9	45	29.4	2	12	90	0.00	30.158 
08:10	50.1	50.1	50.1	46	30.1	2	6	315	0.00	30.158 
08:15	50.2	50.2	50.2	46	30.2	2	6	248	0.00	30.160 
08:20	50.5	50.5	50.5	45	30.0	1	5	0	0.00	30.160 
08:25	50.7	50.7	50.7	46	30.7	1	5	45	0.00	30.160 
08:30	50.8	50.8	50.8	46	30.8	2	7	202	0.00	30.158 
08:35	50.8	50.8	50.8	45	30.2	2	7	270	0.00	30.158 
08:40	50.7	50.7	50.7	45	30.1	2	6	270	0.00	30.158 
08:45	50.8	50.8	50.8	45	30.2	2	9	68	0.00	30.159 
08:50	51.1	51.1	51.1	45	30.5	2	5	0	0.00	30.159 
08:55	51.6	51.6	51.6	44	30.4	3	9	248	0.00	30.159 
09:00	52.0	52.0	52.0	43	30.2	2	9	248	0.00	30.155 
09:05	52.5	52.5	52.5	44	31.2	2	10	248	0.00	30.155 
09:10	52.9	52.9	52.9	42	30.4	4	10	248	0.00	30.155 
09:15	53.5	53.5	53.5	42	31.0	2	7	225	0.00	30.153 
09:20	53.8	53.8	53.8	41	30.7	3	15	248	0.00	30.153 
09:25	53.9	53.9	53.9	41	30.7	3	15	90	0.00	30.153 
09:30	54.1	54.1	54.1	42	31.5	2	9	248	0.00	30.145 
09:35	54.2	54.2	54.2	41	31.0	3	7	248	0.00	30.145 
09:40	54.5	54.5	54.5	41	31.3	3	9	248	0.00	30.145 
09:45	54.7	54.7	54.7	40	30.9	3	6	248	0.00	30.142 
09:50	54.8	54.8	54.8	40	30.9	3	9	248	0.00	30.142 
09:55	55.1	55.1	55.1	39	30.6	3	10	248	0.00	30.142 
10:00	55.6	55.6	55.6	39	31.0	3	10	248	0.00	30.137 
10:05	56.0	56.0	56.0	39	31.4	4	9	315	0.00	30.137 
10:10	56.5	56.5	56.5	39	31.8	3	12	248	0.00	30.137 
10:15	57.0	57.0	57.0	39	32.3	3	12	270	0.00	30.131 
10:20	57.5	57.5	57.5	37	31.4	3	11	270	0.00	30.131 
10:25	57.8	57.8	57.8	36	31.0	4	14	248	0.00	30.131 
10:30	58.0	58.0	58.0	37	31.9	4	12	270	0.00	30.126 
10:35	57.8	57.8	57.8	38	32.4	4	14	270	0.00	30.126 
10:40	58.0	58.0	58.0	37	31.9	4	12	248	0.00	30.126 
10:45	58.1	58.1	58.1	37	32.0	4	10	248	0.00	30.122 
10:50	58.3	58.3	58.3	39	33.5	4	14	248	0.00	30.122 
10:55	58.7	58.7	58.7	38	33.2	4	11	248	0.00	30.122 
11:00	59.0	59.0	59.0	37	32.8	4	11	270	0.00	30.113 
11:05	59.5	59.5	59.5	37	33.2	3	9	248	0.00	30.113 
11:10	59.8	59.8	59.8	38	34.1	3	7	248	0.00	30.113 
11:15	59.8	59.8	59.8	37	33.5	4	17	248	0.00	30.108 
11:20	59.8	59.8	59.8	38	34.1	4	12	248	0.00	30.108 
11:25	60.1	60.1	60.1	38	34.4	3	10	248	0.00	30.108 
11:30	60.4	60.4	60.4	38	34.7	4	7	248	0.00	30.102 
11:35	60.7	60.7	60.7	38	34.9	4	13	270	0.00	30.102 
11:40	60.9	60.9	60.9	38	35.1	5	19	270	0.00	30.102 
11:45	60.9	60.9	60.9	38	35.1	5	13	270	0.00	30.096 
11:50	60.9	60.9	60.9	38	35.1	7	15	248	0.00	30.096 
11:55	61.2	61.2	61.2	40	36.7	4	12	270	0.00	30.096 
12:00	61.6	61.6	61.6	39	36.4	5	15	270	0.00	30.091 
12:05	61.8	61.8	61.8	39	36.6	5	16	270	0.00	30.091 
12:10	61.8	61.8	61.8	39	36.6	5	15	248	0.00	30.091 
12:15	61.6	61.6	61.6	39	36.4	7	18	248	0.00	30.083 
12:20	61.8	61.8	61.8	41	37.8	4	14	248	0.00	30.083 
12:25	62.4	62.4	62.4	40	37.8	5	12	248	0.00	30.083 
12:30	62.7	62.7	62.7	40	38.0	6	15	248	0.00	30.075 
12:35	62.7	62.7	62.7	41	38.7	7	14	248	0.00	30.075 
12:40	63.2	63.2	63.2	41	39.1	5	11	248	0.00	30.075 
12:45	63.7	63.7	63.7	41	39.6	6	13	248	0.00	30.073 
12:50	63.7	63.7	63.7	40	38.9	6	13	248	0.00	30.073 
12:55	63.9	63.9	63.9	41	39.7	5	12	248	0.00	30.073 
13:00	64.2	64.2	64.2	41	40.0	5	13	248	0.00	30.063 
13:05	64.5	64.5	64.5	42	40.9	5	12	225	0.00	30.063 
13:10	64.7	64.7	64.7	42	41.1	8	17	248	0.00	30.063 
13:15	65.0	65.0	65.0	43	42.0	6	14	270	0.00	30.055 
13:20	65.3	65.3	65.3	43	42.2	7	15	248	0.00	30.055 
13:25	65.8	65.8	65.8	43	42.7	6	16	248	0.00	30.055 
13:30	66.1	66.1	66.1	41	41.7	7	14	248	0.00	30.052 
13:35	66.3	66.3	66.3	43	43.1	5	14	270	0.00	30.052 
13:40	66.3	66.3	66.3	42	42.5	7	17	248	0.00	30.052 
13:45	66.4	66.4	66.4	43	43.2	6	14	248	0.00	30.042 
13:50	66.8	66.8	66.8	43	43.6	5	16	248	0.00	30.042 
13:55	66.9	66.9	66.9	43	43.7	5	11	248	0.00	30.042 
14:00	67.1	67.1	67.1	43	43.8	5	13	248	0.00	30.036 
14:05	67.3	67.3	67.3	42	43.4	7	16	270	0.00	30.036 
14:10	67.3	67.3	67.3	42	43.4	6	15	270	0.00	30.036 
14:15	66.6	66.6	66.6	43	43.4	6	17	248	0.00	30.030 
14:20	66.3	66.3	66.3	44	43.7	7	17	248	0.00	30.030 
14:25	66.6	66.6	66.6	43	43.4	6	15	270	0.00	30.030 
14:30	66.9	66.9	66.9	43	43.7	7	19	270	0.00	30.027 
14:35	66.8	66.8	66.8	42	43.0	7	15	270	0.00	30.027 
14:40	66.3	66.3	66.3	42	42.5	6	14	248	0.00	30.027 
14:45	66.1	66.1	66.1	42	42.3	8	18	248	0.00	30.031 
14:50	66.1	66.1	66.1	41	41.7	7	19	248	0.00	30.031 
14:55	66.4	66.4	66.4	42	42.6	5	20	248	0.00	30.031 
15:00	66.6	66.6	66.6	42	42.8	6	22	248	0.00	30.022 
15:05	67.1	67.1	67.1	40	42.0	7	15	270	0.00	30.022 
15:10	67.8	67.8	67.8	40	42.6	4	12	248	0.00	30.022 
15:15	67.6	67.6	67.6	38	41.1	7	19	248	0.00	30.021 
15:20	67.3	67.3	67.3	39	41.5	5	11	248	0.00	30.021 
15:25	66.9	66.9	66.9	39	41.1	5	14	248	0.00	30.021 
15:30	66.9	66.9	66.9	39	41.1	4	15	248	0.00	30.024 
15:35	66.9	66.9	66.9	38	40.5	6	12	248	0.00	30.024 
15:40	66.8	66.8	66.8	38	40.4	5	13	248	0.00	30.024 
15:45	66.6	66.6	66.6	38	40.2	5	16	248	0.00	30.023 
15:50	66.3	66.3	66.3	38	39.9	5	14	248	0.00	30.023 
15:55	66.1	66.1	66.1	37	39.1	4	11	248	0.00	30.023 
16:00	66.0	66.0	66.0	37	39.0	4	14	248	0.00	30.024 
16:05	65.6	65.6	65.6	37	38.6	4	10	248	0.00	30.024 
16:10	65.6	65.6	65.6	38	39.3	2	9	248	0.00	30.024 
16:15	65.5	65.5	65.5	36	37.8	4	9	248	0.00	30.024 
16:20	65.6	65.6	65.6	36	37.9	4	10	248	0.00	30.024 
16:25	65.6	65.6	65.6	37	38.6	3	11	248	0.00	30.024 
16:30	65.6	65.6	65.6	36	37.9	3	10	248	0.00	30.024 
16:35	65.6	65.6	65.6	36	37.9	4	11	248	0.00	30.024 
16:40	65.5	65.5	65.5	36	37.8	3	10	248	0.00	30.024 
16:45	65.6	65.6	65.6	36	37.9	2	9	270	0.00	30.016 
16:50	65.6	65.6	65.6	35	37.2	4	17	248	0.00	30.016 
16:55	65.8	65.8	65.8	36	38.1	2	7	225	0.00	30.016 
17:00	65.6	65.6	65.6	36	37.9	3	7	270	0.00	30.011 
17:05	65.6	65.6	65.6	36	37.9	3	7	248	0.00	30.011 
17:10	65.6	65.6	65.6	37	38.6	2	7	248	0.00	30.011 
17:15	65.6	65.6	65.6	36	37.9	2	9	248	0.00	30.009 
17:20	65.6	65.6	65.6	36	37.9	3	10	248	0.00	30.009 
17:25	65.5	65.5	65.5	36	37.8	2	6	248	0.00	30.009 
17:30	65.3	65.3	65.3	37	38.4	4	13	248	0.00	30.006 
17:35	65.3	65.3	65.3	37	38.4	3	11	248	0.00	30.006 
17:40	65.3	65.3	65.3	37	38.4	3	9	248	0.00	30.006 
17:45	65.5	65.5	65.5	38	39.2	2	7	248	0.00	29.995 
17:50	65.3	65.3	65.3	38	39.0	2	6	248	0.00	29.995 
17:55	65.0	65.0	65.0	39	39.4	2	7	248	0.00	29.995 
18:00	64.8	64.8	64.8	39	39.3	2	6	248	0.00	29.994 
18:05	64.7	64.7	64.7	39	39.2	3	9	270	0.00	29.994 
18:10	64.7	64.7	64.7	39	39.2	3	10	225	0.00	29.994 
18:15	64.5	64.5	64.5	40	39.6	2	6	248	0.00	29.999 
18:20	64.2	64.2	64.2	40	39.4	2	6	248	0.00	29.999 
18:25	63.9	63.9	63.9	41	39.7	3	10	270	0.00	29.999 
18:30	63.7	63.7	63.7	41	39.6	2	7	248	0.00	30.002 
18:35	63.5	63.5	63.5	42	40.0	3	9	248	0.00	30.002 
18:40	63.4	63.4	63.4	43	40.5	3	7	248	0.00	30.002 
18:45	63.2	63.2	63.2	43	40.3	2	10	248	0.00	30.004 
18:50	63.1	63.1	63.1	44	40.8	3	7	248	0.00	30.004 
18:55	62.9	62.9	62.9	44	40.6	3	13	225	0.00	30.004 
19:00	62.9	62.9	62.9	45	41.2	3	10	248	0.00	30.010 
19:05	62.7	62.7	62.7	45	41.0	3	7	248	0.00	30.010 
19:10	62.9	62.9	62.9	45	41.2	3	11	248	0.00	30.010 
19:15	62.9	62.9	62.9	45	41.2	3	12	248	0.00	30.012 
19:20	63.1	63.1	63.1	45	41.4	4	11	248	0.00	30.012 
19:25	63.1	63.1	63.1	45	41.4	3	11	248	0.00	30.012 
19:30	62.9	62.9	62.9	46	41.8	2	7	225	0.00	30.011 
19:35	62.7	62.7	62.7	46	41.6	3	13	248	0.00	30.011 
19:40	62.6	62.6	62.6	46	41.5	2	9	248	0.00	30.011 
19:45	62.3	62.3	62.3	47	41.8	2	6	270	0.00	30.008 
19:50	62.1	62.1	62.1	47	41.6	3	10	248	0.00	30.008 
19:55	62.3	62.3	62.3	47	41.8	2	10	270	0.00	30.008 
20:00	62.1	62.1	62.1	47	41.6	3	10	248	0.00	30.008 
20:05	62.1	62.1	62.1	47	41.6	3	9	248	0.00	30.008 
20:10	62.0	62.0	62.0	48	42.1	3	16	90	0.00	30.008 
20:15	61.8	61.8	61.8	48	41.9	3	7	248	0.00	30.000 
20:20	61.5	61.5	61.5	49	42.2	2	9	90	0.00	30.000 
20:25	61.2	61.2	61.2	50	42.4	2	6	90	0.00	30.000 
20:30	61.0	61.0	61.0	51	42.7	2	6	248	0.00	30.010 
20:35	61.0	61.0	61.0	51	42.7	3	10	68	0.00	30.010 
20:40	60.9	60.9	60.9	52	43.2	2	10	90	0.00	30.010 
20:45	60.7	60.7	60.7	53	43.5	3	12	68	0.00	30.006 
20:50	60.7	60.7	60.7	53	43.5	3	11	112	0.00	30.006 
20:55	60.7	60.7	60.7	53	43.5	2	4	68	0.00	30.006 
21:00	60.5	60.5	60.5	54	43.8	2	7	248	0.00	29.996 
21:05	60.5	60.5	60.5	54	43.8	3	9	90	0.00	29.996 
21:10	60.4	60.4	60.4	55	44.2	3	10	90	0.00	29.996 
21:15	60.2	60.2	60.2	55	44.0	2	6	68	0.00	29.988 
21:20	60.1	60.1	60.1	56	44.3	2	7	68	0.00	29.988 
21:25	59.9	59.9	59.9	56	44.2	2	9	270	0.00	29.988 
21:30	60.2	60.2	60.2	56	44.4	3	10	248	0.00	29.990 
21:35	60.2	60.2	60.2	57	44.9	2	6	90	0.00	29.990 
21:40	60.4	60.4	60.4	57	45.1	2	5	248	0.00	29.990 
21:45	60.4	60.4	60.4	57	45.1	2	5	270	0.00	29.986 
21:50	60.5	60.5	60.5	57	45.2	2	9	248	0.00	29.986 
21:55	60.5	60.5	60.5	56	44.7	3	9	248	0.00	29.986 
22:00	60.7	60.7	60.7	57	45.4	2	9	270	0.00	29.981 
22:05	60.5	60.5	60.5	57	45.2	2	12	270	0.00	29.981 
22:10	60.7	60.7	60.7	57	45.4	2	11	248	0.00	29.981 
22:15	60.7	60.7	60.7	56	44.9	3	10	248	0.00	29.974 
22:20	60.7	60.7	60.7	57	45.4	2	6	248	0.00	29.974 
22:25	60.7	60.7	60.7	57	45.4	2	12	270	0.00	29.974 
22:30	60.7	60.7	60.7	57	45.4	2	7	248	0.00	29.970 
22:35	60.7	60.7	60.7	57	45.4	3	6	248	0.00	29.970 
22:40	60.7	60.7	60.7	57	45.4	3	9	248	0.00	29.970 
22:45	60.9	60.9	60.9	57	45.6	3	9	248	0.00	29.963 
22:50	60.9	60.9	60.9	57	45.6	2	9	270	0.00	29.963 
22:55	60.9	60.9	60.9	57	45.6	3	11	270	0.00	29.963 
23:00	60.9	60.9	60.9	57	45.6	2	7	248	0.00	29.961 
23:05	60.9	60.9	60.9	58	46.0	3	9	248	0.00	29.961 
23:10	60.9	60.9	60.9	58	46.0	3	7	248	0.00	29.961 
23:15	60.9	60.9	60.9	58	46.0	3	7	248	0.00	29.953 
23:20	60.9	60.9	60.9	58	46.0	3	13	248	0.00	29.953 
23:25	61.0	61.0	61.0	58	46.1	2	6	248	0.00	29.953 
23:30	60.9	60.9	60.9	58	46.0	2	6	248	0.00	29.947 
23:35	61.0	61.0	61.0	58	46.1	3	12	248	0.00	29.947 
23:40	61.0	61.0	61.0	58	46.1	3	9	248	0.00	29.947 
23:45	61.0	61.0	61.0	58	46.1	2	8	248	0.00	29.938 
23:50	60.9	60.9	60.9	59	46.5	3	10	248	0.00	29.938 
23:55	60.9	60.9	60.9	58	46.0	3	13	292	0.00	29.938 

CoCoRaHS
IN-AL-39
A2 Web Hosting
Creative Commons License
GoDaddy
search engine by freefind advanced

loaded 2018-11-15 05:38:44 • last modified 2010-11-18 10:43:29
Privacy PolicyDisclaimer
• wx.awcolley.com is powered by PmWiki v.2002016 •
• all content (unless otherwise noted) © 2018 A W Colley